Time;durP1;ratioP1;P1;durP2;ratioP2;P2;SDS_P1;SDS_P2;PMS_P1;PMS_P2;Temp;Humidity;BMP_temperature;BMP_pressure;BME280_temperature;BME280_humidity;BME280_pressure;Samples;Min_cycle;Max_cycle;Signal;HPM_P1;HPM_P2
2024/02/19 07:02:42;;;;;;;51.10;18.88;;;;;;;6.13;100.00;97612.31;2083618;28;20562;-74
2024/02/19 07:18:58;;;;;;;2.53;1.35;;;;;;;6.10;100.00;97692.75;2083700;28;20592;-72
2024/02/19 07:24:32;;;;;;;7.57;1.80;;;;;;;6.06;100.00;97684.16;2083878;28;20569;-73
2024/02/19 07:28:34;;;;;;;9.57;1.65;;;;;;;6.16;100.00;97684.94;2084866;28;20566;-74
2024/02/19 07:32:09;;;;;;;3.45;1.65;;;;;;;6.30;100.00;97692.56;2106747;27;21007;-72
2024/02/19 07:35:21;;;;;;;6.10;1.95;;;;;;;6.44;98.61;97695.84;2099933;27;20586;-72
2024/02/19 07:36:22;;;;;;;2.83;1.25;;;;;;;6.56;97.76;97700.03;2097091;28;20195;-72
2024/02/19 07:39:26;;;;;;;8.07;1.88;;;;;;;6.72;97.03;97708.50;2123645;27;20561;-72
2024/02/19 11:03:43;;;;;;;9.10;1.80;;;;;;;7.58;85.92;97841.63;2084507;28;21125;-61
2024/02/19 11:06:01;;;;;;;6.75;1.70;;;;;;;7.73;85.23;97832.72;2099975;27;20695;-61
2024/02/19 11:07:03;;;;;;;2.35;1.05;;;;;;;7.95;85.90;97825.47;2093051;28;20801;-61
2024/02/19 11:08:18;;;;;;;6.90;1.33;;;;;;;7.97;85.30;97815.91;2086309;28;20277;-61
2024/02/19 11:09:20;;;;;;;12.18;1.90;;;;;;;8.15;84.41;97832.09;2077744;28;20206;-61
2024/02/19 11:10:41;;;;;;;4.28;1.30;;;;;;;8.11;83.35;97830.44;2077476;28;20211;-61
2024/02/19 11:11:51;;;;;;;8.55;1.40;;;;;;;8.10;83.04;97828.72;2080482;28;20666;-61
2024/02/19 11:12:53;;;;;;;5.53;1.83;;;;;;;8.15;82.49;97825.16;2074679;28;20217;-61
2024/02/19 11:14:59;;;;;;;5.15;1.52;;;;;;;8.16;81.92;97828.63;2086633;28;20577;-61
2024/02/19 11:19:57;;;;;;;6.70;1.17;;;;;;;7.97;81.38;97813.31;2091354;27;20577;-73
2024/02/19 11:22:21;;;;;;;5.20;2.35;;;;;;;7.94;80.82;97817.69;2101222;27;20566;-73
2024/02/19 11:24:50;;;;;;;8.90;2.00;;;;;;;8.05;81.99;97810.59;2106561;27;20571;-73
2024/02/19 11:25:53;;;;;;;7.30;1.10;;;;;;;7.96;81.24;97809.00;2105472;28;20198;-72
2024/02/19 11:26:55;;;;;;;5.65;1.02;;;;;;;7.90;80.55;97796.06;2104906;28;20190;-73
2024/02/19 11:27:58;;;;;;;5.45;1.50;;;;;;;8.22;80.69;97799.06;2098380;28;20223;-72
2024/02/19 11:29:00;;;;;;;9.43;1.42;;;;;;;8.41;80.29;97799.59;2088115;28;20191;-72
2024/02/19 11:30:04;;;;;;;4.97;1.40;;;;;;;8.52;79.16;97800.28;2089354;28;20279;-72
2024/02/19 11:31:06;;;;;;;8.65;1.83;;;;;;;8.58;78.44;97796.69;2089598;28;20196;-73
2024/02/19 11:32:08;;;;;;;4.72;1.20;;;;;;;8.47;78.35;97802.97;2089900;28;20290;-72
2024/02/19 11:33:12;;;;;;;7.63;1.23;;;;;;;8.58;78.43;97797.59;2086943;28;20212;-72
2024/02/19 11:34:18;;;;;;;7.13;1.50;;;;;;;8.51;78.53;97793.38;2091714;28;20187;-72
2024/02/19 11:35:19;;;;;;;3.85;1.30;;;;;;;8.49;78.55;97792.53;2089470;28;20192;-73
2024/02/19 11:36:21;;;;;;;7.00;0.95;;;;;;;8.38;77.21;97784.00;2086825;28;20287;-72
2024/02/19 11:37:22;;;;;;;5.45;1.20;;;;;;;8.40;78.69;97790.06;2091986;28;20200;-72
2024/02/19 11:38:25;;;;;;;5.60;1.10;;;;;;;8.39;78.52;97786.56;2087415;28;20231;-73
2024/02/19 11:40:46;;;;;;;4.43;1.15;;;;;;;8.58;79.50;97768.94;2086679;28;20560;-72
2024/02/19 11:43:11;;;;;;;7.53;1.15;;;;;;;8.46;78.08;97776.97;2080811;28;20565;-74
2024/02/19 11:45:45;;;;;;;2.60;0.93;;;;;;;8.53;78.54;97783.75;2099393;27;20566;-72
2024/02/19 11:48:22;;;;;;;5.07;1.10;;;;;;;8.62;78.58;97786.22;2081450;27;20568;-72
2024/02/19 12:01:20;;;;;;;6.45;1.33;;;;;;;8.18;78.59;97772.22;2085137;28;20575;-72
2024/02/19 12:04:41;;;;;;;4.28;1.25;;;;;;;8.13;77.89;97768.84;2092781;27;20566;-61
2024/02/19 12:07:56;;;;;;;4.15;1.00;;;;;;;8.08;78.47;97771.50;2092864;27;20563;-71
2024/02/19 12:11:00;;;;;;;2.42;0.90;;;;;;;8.10;77.54;97763.66;2109209;27;20554;-74
2024/02/19 12:13:54;;;;;;;7.07;1.33;;;;;;;7.83;77.54;97748.50;2099652;27;20563;-72
2024/02/19 12:16:47;;;;;;;2.83;0.82;;;;;;;8.00;77.64;97749.97;2099941;27;20548;-72
2024/02/19 12:17:48;;;;;;;7.47;1.60;;;;;;;8.14;77.40;97747.16;2095339;28;20377;-72
2024/02/19 12:18:51;;;;;;;5.60;1.02;;;;;;;8.20;77.04;97751.38;2086094;28;20200;-73
2024/02/19 12:19:53;;;;;;;4.03;1.00;;;;;;;8.29;76.75;97753.78;2082561;28;20204;-73
2024/02/19 12:20:59;;;;;;;7.00;1.60;;;;;;;8.39;75.79;97749.28;2080871;28;20197;-73
2024/02/19 12:22:01;;;;;;;7.03;1.45;;;;;;;8.44;75.17;97745.75;2080885;28;20239;-61
2024/02/19 12:23:03;;;;;;;4.55;1.40;;;;;;;8.51;74.81;97741.28;2086111;28;20232;-61
2024/02/19 12:24:05;;;;;;;6.00;1.73;;;;;;;8.44;75.34;97716.22;2090035;28;20244;-61
2024/02/19 12:25:08;;;;;;;6.63;1.63;;;;;;;8.63;74.92;97740.19;2088691;28;20254;-61
2024/02/19 12:26:10;;;;;;;2.90;1.30;;;;;;;8.81;75.33;97746.78;2091870;28;20274;-63
2024/02/19 12:27:12;;;;;;;8.45;1.30;;;;;;;9.01;75.56;97745.53;2086764;28;20279;-62
2024/02/19 12:28:14;;;;;;;4.45;1.17;;;;;;;9.60;74.31;97743.34;2086445;28;20227;-62
2024/02/19 12:29:15;;;;;;;9.60;1.58;;;;;;;9.62;73.06;97736.34;2092410;28;20191;-63
2024/02/19 12:30:17;;;;;;;5.32;1.63;;;;;;;9.47;72.56;97740.16;2091455;28;20245;-63
2024/02/19 12:31:19;;;;;;;5.03;1.23;;;;;;;9.45;73.35;97730.66;2089945;28;20216;-63
2024/02/19 12:32:21;;;;;;;9.77;2.75;;;;;;;9.47;73.57;97732.34;2090090;28;20196;-62
2024/02/19 12:33:23;;;;;;;9.48;1.80;;;;;;;9.48;73.84;97727.97;2085980;28;20224;-63
2024/02/19 12:34:24;;;;;;;9.55;1.83;;;;;;;9.37;73.30;97724.75;2090608;28;20192;-63
2024/02/19 12:35:26;;;;;;;7.07;1.48;;;;;;;9.25;73.18;97725.91;2090273;28;20227;-63
2024/02/19 12:36:28;;;;;;;5.72;1.50;;;;;;;9.14;72.94;97723.50;2089455;28;20224;-62
2024/02/19 12:37:30;;;;;;;8.10;1.50;;;;;;;9.16;74.23;97721.75;2087804;28;20200;-63
2024/02/19 12:38:32;;;;;;;10.85;2.17;;;;;;;9.20;74.35;97723.38;2086385;28;20204;-63
2024/02/19 12:39:36;;;;;;;8.13;1.70;;;;;;;9.13;74.32;97725.28;2087046;28;20707;-63
2024/02/19 12:40:38;;;;;;;9.02;1.42;;;;;;;9.12;73.74;97718.34;2088557;28;20196;-62
2024/02/19 12:41:40;;;;;;;14.77;2.17;;;;;;;9.06;73.80;97721.06;2106085;28;20195;-62
2024/02/19 12:42:42;;;;;;;10.05;1.95;;;;;;;9.06;73.43;97721.06;2104413;28;20214;-62
2024/02/19 12:43:45;;;;;;;5.65;1.48;;;;;;;8.98;73.33;97723.00;2086607;28;20204;-62
2024/02/19 12:44:46;;;;;;;6.80;1.50;;;;;;;9.00;73.57;97729.03;2092177;28;20196;-62
2024/02/19 12:45:48;;;;;;;12.43;2.20;;;;;;;8.96;73.92;97712.63;2091216;28;20241;-62
2024/02/19 12:46:50;;;;;;;10.10;1.70;;;;;;;9.07;74.34;97714.13;2091234;28;20203;-62
2024/02/19 12:47:52;;;;;;;9.15;1.77;;;;;;;8.92;73.40;97705.75;2089269;28;20691;-62
2024/02/19 12:48:57;;;;;;;8.95;1.50;;;;;;;8.90;74.22;97711.88;2086386;28;20200;-63
2024/02/19 12:49:59;;;;;;;5.75;1.67;;;;;;;8.96;74.80;97716.97;2088947;28;20196;-63
2024/02/19 12:51:02;;;;;;;5.50;1.80;;;;;;;8.90;74.69;97712.75;2089180;28;20660;-62
2024/02/19 12:52:04;;;;;;;8.13;2.17;;;;;;;9.11;75.31;97705.34;2091238;28;20196;-63
2024/02/19 12:53:05;;;;;;;12.20;3.05;;;;;;;9.15;74.98;97709.59;2088128;28;20733;-63
2024/02/19 12:54:07;;;;;;;8.77;2.22;;;;;;;9.19;75.21;97710.41;2090246;28;20196;-62
2024/02/19 12:55:09;;;;;;;13.88;2.55;;;;;;;9.22;74.86;97707.72;2090221;28;20193;-62
2024/02/19 12:56:11;;;;;;;9.50;1.55;;;;;;;9.25;74.14;97707.66;2090246;28;20196;-62
2024/02/19 12:57:13;;;;;;;8.43;2.10;;;;;;;9.31;74.33;97704.91;2090187;28;20695;-62
2024/02/19 12:58:14;;;;;;;9.95;1.70;;;;;;;9.30;73.52;97704.03;2089630;28;20307;-62
2024/02/19 12:59:16;;;;;;;7.32;1.70;;;;;;;9.26;73.39;97707.63;2091301;28;20196;-62
2024/02/19 13:00:17;;;;;;;12.45;1.83;;;;;;;9.17;73.86;97680.91;2089935;28;20654;-62
2024/02/19 13:01:19;;;;;;;10.85;2.08;;;;;;;9.13;73.31;97704.44;2088906;28;20196;-63
2024/02/19 13:02:33;;;;;;;5.28;1.30;;;;;;;9.09;73.58;97700.19;2089480;28;20805;-63
2024/02/19 13:03:34;;;;;;;4.95;1.50;;;;;;;9.13;73.26;97695.78;2089774;28;20192;-63
2024/02/19 13:04:36;;;;;;;8.30;1.70;;;;;;;9.26;73.53;97696.34;2087705;28;20219;-62
2024/02/19 13:05:37;;;;;;;16.15;2.75;;;;;;;9.14;73.39;97695.72;2089533;28;20215;-62
2024/02/19 13:06:40;;;;;;;9.70;1.90;;;;;;;9.11;73.72;97687.13;2089206;28;20274;-62
2024/02/19 13:07:42;;;;;;;7.63;1.40;;;;;;;9.21;73.57;97700.81;2085954;28;20257;-63
2024/02/19 13:08:44;;;;;;;10.85;2.20;;;;;;;9.18;73.10;97696.53;2089396;28;20188;-62
2024/02/19 13:09:46;;;;;;;5.63;1.60;;;;;;;9.19;73.45;97690.38;2090184;28;20207;-62
2024/02/19 13:10:47;;;;;;;11.35;2.25;;;;;;;9.18;73.13;97691.31;2091138;28;20196;-62
2024/02/19 13:11:49;;;;;;;5.03;1.50;;;;;;;9.20;73.42;97691.28;2086298;28;20199;-63
2024/02/19 13:12:51;;;;;;;6.95;1.60;;;;;;;9.13;71.95;97691.41;2085587;28;20248;-63
2024/02/19 13:13:52;;;;;;;14.75;1.70;;;;;;;9.01;72.45;97681.25;2089677;28;20188;-62
2024/02/19 13:14:56;;;;;;;9.05;2.15;;;;;;;9.00;72.17;97658.69;2090134;28;20211;-62
2024/02/19 13:15:57;;;;;;;6.15;1.33;;;;;;;9.27;72.87;97685.88;2089872;28;20288;-62
2024/02/19 13:16:59;;;;;;;9.55;1.70;;;;;;;9.38;71.87;97683.00;2090414;28;20540;-63
2024/02/19 13:18:13;;;;;;;13.98;2.15;;;;;;;9.65;71.48;97667.63;2087362;28;20349;-63
2024/02/19 13:19:17;;;;;;;8.10;1.75;;;;;;;10.78;69.53;97669.88;2089471;28;20224;-62
2024/02/19 13:20:19;;;;;;;10.25;2.17;;;;;;;11.23;67.99;97661.50;2090739;28;20748;-64
2024/02/19 13:21:20;;;;;;;14.52;2.42;;;;;;;11.53;66.12;97661.47;2082000;28;20204;-63
2024/02/19 13:22:22;;;;;;;11.43;1.48;;;;;;;11.48;66.95;97663.38;2088281;28;20660;-63
2024/02/19 13:23:24;;;;;;;5.68;1.85;;;;;;;11.64;65.75;97652.41;2086752;28;20228;-63
2024/02/19 13:24:25;;;;;;;6.85;1.70;;;;;;;11.25;66.04;97656.25;2090041;28;20285;-63
2024/02/19 13:25:26;;;;;;;8.13;2.10;;;;;;;11.56;65.39;97655.28;2089278;28;20210;-63
2024/02/19 13:26:28;;;;;;;9.32;1.80;;;;;;;11.92;65.01;97654.94;2088620;28;20256;-63
2024/02/19 13:27:29;;;;;;;9.50;2.10;;;;;;;12.28;64.08;97657.25;2088026;28;20213;-63
2024/02/19 13:28:31;;;;;;;5.40;1.65;;;;;;;12.17;63.74;97652.38;2084264;28;20219;-73
2024/02/19 13:29:33;;;;;;;8.73;1.92;;;;;;;12.56;63.29;97651.84;2085502;28;20228;-74
2024/02/19 13:30:34;;;;;;;5.80;1.83;;;;;;;12.18;63.89;97659.31;2084500;28;20608;-73
2024/02/19 13:31:39;;;;;;;6.25;1.42;;;;;;;12.12;63.17;97640.34;2083995;28;20283;-74
2024/02/19 13:32:41;;;;;;;9.38;1.85;;;;;;;12.17;63.71;97648.91;2082243;28;20659;-74
2024/02/19 13:33:44;;;;;;;8.68;1.65;;;;;;;12.47;63.45;97654.81;2084714;28;20193;-74
2024/02/19 13:34:47;;;;;;;6.22;1.85;;;;;;;12.72;62.69;97667.00;2085064;28;20203;-74
2024/02/19 13:35:48;;;;;;;8.70;2.70;;;;;;;12.36;62.14;97668.28;2083946;28;20259;-73
2024/02/19 13:36:50;;;;;;;7.95;2.05;;;;;;;11.87;63.52;97670.81;2084729;28;20289;-74
2024/02/19 13:37:56;;;;;;;8.00;1.70;;;;;;;11.22;65.21;97664.19;2085751;28;20301;-73
2024/02/19 13:38:58;;;;;;;13.57;1.98;;;;;;;11.14;66.65;97671.41;2086137;28;20264;-73
2024/02/19 13:40:04;;;;;;;10.05;2.13;;;;;;;10.71;67.04;97661.31;2085725;28;21003;-73
2024/02/19 13:41:06;;;;;;;9.02;2.25;;;;;;;10.65;67.99;97673.72;2084049;28;20259;-73
2024/02/19 13:42:09;;;;;;;7.68;2.00;;;;;;;10.61;69.24;97675.56;2080720;28;20215;-73
2024/02/19 13:43:10;;;;;;;9.88;2.58;;;;;;;10.51;69.29;97669.72;2079993;28;20689;-73
2024/02/19 13:44:12;;;;;;;9.90;2.58;;;;;;;10.31;70.24;97678.09;2088225;28;20642;-73
2024/02/19 13:45:14;;;;;;;9.38;2.08;;;;;;;10.07;70.48;97677.00;2088051;28;20203;-74
2024/02/19 13:46:17;;;;;;;13.23;2.25;;;;;;;9.93;70.14;97678.22;2080603;28;20290;-73
2024/02/19 13:47:18;;;;;;;8.52;2.25;;;;;;;9.82;71.17;97677.63;2081801;28;20267;-73
2024/02/19 13:48:22;;;;;;;11.68;2.45;;;;;;;9.83;71.05;97679.34;2083712;28;20221;-73
2024/02/19 13:49:24;;;;;;;5.88;1.75;;;;;;;9.54;71.67;97678.31;2082765;28;20194;-73
2024/02/19 13:50:25;;;;;;;9.60;2.00;;;;;;;9.47;72.05;97676.72;2083136;28;20235;-73
2024/02/19 13:51:27;;;;;;;7.65;1.65;;;;;;;9.41;71.91;97674.28;2083724;28;20283;-73
2024/02/19 14:09:01;;;;;;;8.35;1.98;;;;;;;9.20;73.85;97667.81;2084429;28;20574;-66
2024/02/19 14:10:05;;;;;;;4.85;2.00;;;;;;;9.20;73.24;97660.84;2078727;28;20239;-66
2024/02/19 14:11:07;;;;;;;12.85;2.47;;;;;;;9.35;73.47;97661.41;2078612;28;20299;-68
2024/02/19 14:12:08;;;;;;;8.05;2.10;;;;;;;9.38;72.70;97659.53;2076111;28;20191;-69
2024/02/19 14:15:32;;;;;;;6.97;1.58;;;;;;;9.44;73.53;97669.00;2084461;28;20564;-66
2024/02/19 14:16:33;;;;;;;9.93;1.88;;;;;;;9.32;72.29;97652.75;2081215;28;20782;-66
2024/02/19 14:20:16;;;;;;;7.68;1.73;;;;;;;9.24;73.34;97652.09;2101646;27;20568;-66
2024/02/19 14:23:56;;;;;;;9.55;1.83;;;;;;;9.05;72.74;97637.75;2085683;28;20973;-66
